Time;durP1;ratioP1;P1;durP2;ratioP2;P2;SDS_P1;SDS_P2;PMS_P1;PMS_P2;Temp;Humidity;BMP_temperature;BMP_pressure;BME280_temperature;BME280_humidity;BME280_pressure;Samples;Min_cycle;Max_cycle;Signal;HPM_P1;HPM_P2
2021/06/28 00:00:24;;;;;;;4.37;2.87;;;;;;;;;;4264213;33;20420;-56
2021/06/28 00:02:50;;;;;;;4.40;3.25;;;;;;;;;;4263598;33;20335;-54
2021/06/28 00:05:18;;;;;;;7.78;3.35;;;;;;;;;;4264246;33;20308;-56
2021/06/28 00:07:44;;;;;;;4.00;3.08;;;;;;;;;;4264421;33;20376;-56
2021/06/28 00:10:14;;;;;;;4.68;2.95;;;;;;;;;;4264390;33;20611;-57
2021/06/28 00:12:40;;;;;;;3.75;2.85;;;;;;;;;;4264064;33;20264;-55
2021/06/28 00:15:10;;;;;;;3.58;2.97;;;;;;;;;;4264332;33;20660;-57
2021/06/28 00:17:35;;;;;;;4.80;3.67;;;;;;;;;;4264206;33;20303;-55
2021/06/28 00:20:01;;;;;;;7.25;3.62;;;;;;;;;;4264392;33;20689;-60
2021/06/28 00:22:27;;;;;;;5.18;3.15;;;;;;;;;;4264140;33;20228;-55
2021/06/28 00:24:52;;;;;;;4.22;3.53;;;;;;;;;;4263939;33;20697;-57
2021/06/28 00:27:22;;;;;;;7.00;3.58;;;;;;;;;;4264343;33;20224;-55
2021/06/28 00:29:48;;;;;;;5.53;3.60;;;;;;;;;;4264538;33;20212;-54
2021/06/28 00:32:13;;;;;;;5.15;3.80;;;;;;;;;;4264106;33;20333;-55
2021/06/28 00:34:39;;;;;;;7.82;3.70;;;;;;;;;;4264337;33;20371;-56
2021/06/28 00:37:05;;;;;;;3.70;3.22;;;;;;;;;;4263919;33;20251;-56
2021/06/28 00:39:30;;;;;;;6.12;3.42;;;;;;;;;;4264015;33;20220;-56
2021/06/28 00:41:56;;;;;;;5.45;3.12;;;;;;;;;;4264156;33;20228;-55
2021/06/28 00:44:21;;;;;;;3.90;3.10;;;;;;;;;;4264030;33;20209;-54
2021/06/28 00:46:46;;;;;;;3.50;3.00;;;;;;;;;;4264410;33;20299;-55
2021/06/28 00:49:12;;;;;;;3.83;3.22;;;;;;;;;;4263949;33;20294;-55
2021/06/28 00:51:38;;;;;;;5.65;3.17;;;;;;;;;;4264355;33;20322;-56
2021/06/28 00:54:03;;;;;;;3.28;2.65;;;;;;;;;;4263819;33;20803;-56
2021/06/28 00:56:29;;;;;;;3.97;3.40;;;;;;;;;;4264004;33;20339;-56
2021/06/28 00:58:55;;;;;;;4.32;3.12;;;;;;;;;;4262999;33;20228;-55
2021/06/28 01:01:21;;;;;;;3.70;3.08;;;;;;;;;;4264047;33;20748;-56
2021/06/28 01:03:46;;;;;;;5.37;3.67;;;;;;;;;;4263676;33;20383;-55
2021/06/28 01:06:14;;;;;;;5.60;3.60;;;;;;;;;;4264250;33;20279;-55
2021/06/28 01:08:39;;;;;;;6.72;3.92;;;;;;;;;;4263984;33;20312;-56
2021/06/28 01:11:05;;;;;;;5.18;3.35;;;;;;;;;;4264035;33;20366;-56
2021/06/28 01:13:32;;;;;;;6.50;3.28;;;;;;;;;;4274654;33;20232;-55
2021/06/28 01:15:59;;;;;;;3.30;3.00;;;;;;;;;;4263983;33;20209;-55
2021/06/28 01:18:25;;;;;;;10.30;4.32;;;;;;;;;;4263409;33;20224;-55
2021/06/28 01:20:50;;;;;;;8.40;3.60;;;;;;;;;;4263661;33;20314;-56
2021/06/28 01:23:20;;;;;;;5.57;3.95;;;;;;;;;;4263335;33;20624;-55
2021/06/28 01:25:56;;;;;;;4.35;3.60;;;;;;;;;;4263213;33;20224;-55
2021/06/28 01:28:22;;;;;;;6.22;4.15;;;;;;;;;;4263463;33;20235;-56
2021/06/28 01:30:48;;;;;;;4.80;3.70;;;;;;;;;;4263392;33;20318;-56
2021/06/28 01:33:14;;;;;;;11.57;4.45;;;;;;;;;;4263089;33;20304;-55
2021/06/28 01:35:40;;;;;;;5.53;3.50;;;;;;;;;;4263645;33;20275;-55
2021/06/28 01:38:07;;;;;;;5.90;4.30;;;;;;;;;;4263684;33;20228;-55
2021/06/28 01:40:33;;;;;;;8.82;3.70;;;;;;;;;;4263829;33;20212;-57
2021/06/28 01:42:59;;;;;;;6.00;3.90;;;;;;;;;;4263328;33;20260;-55
2021/06/28 01:45:25;;;;;;;7.18;4.30;;;;;;;;;;4263704;33;20402;-58
2021/06/28 01:47:54;;;;;;;4.57;3.67;;;;;;;;;;4263816;33;20253;-55
2021/06/28 01:50:21;;;;;;;4.00;3.60;;;;;;;;;;4265914;33;20326;-55
2021/06/28 01:52:47;;;;;;;6.22;3.85;;;;;;;;;;4265904;33;20225;-56
2021/06/28 01:55:17;;;;;;;5.25;4.20;;;;;;;;;;4266548;33;20339;-55
2021/06/28 01:57:59;;;;;;;6.03;3.92;;;;;;;;;;4266407;33;20259;-55
2021/06/28 02:00:41;;;;;;;5.93;4.12;;;;;;;;;;4266191;33;20315;-56
2021/06/28 02:03:08;;;;;;;5.75;4.25;;;;;;;;;;4265756;33;20300;-55
2021/06/28 02:05:36;;;;;;;5.53;3.58;;;;;;;;;;4277155;33;20243;-56
2021/06/28 02:08:06;;;;;;;5.95;4.18;;;;;;;;;;4266048;33;20866;-56
2021/06/28 02:10:32;;;;;;;5.40;4.10;;;;;;;;;;4265473;33;20209;-56
2021/06/28 02:12:57;;;;;;;8.25;4.12;;;;;;;;;;4265983;33;20307;-57
2021/06/28 02:15:29;;;;;;;5.00;3.85;;;;;;;;;;4265838;33;20307;-55
2021/06/28 02:17:55;;;;;;;4.37;3.97;;;;;;;;;;4265572;33;20311;-56
2021/06/28 02:20:21;;;;;;;4.97;4.20;;;;;;;;;;4266268;33;20276;-56
2021/06/28 02:22:50;;;;;;;6.47;4.37;;;;;;;;;;4265934;33;20311;-56
2021/06/28 02:25:15;;;;;;;6.28;3.87;;;;;;;;;;4265965;33;20216;-56
2021/06/28 02:27:41;;;;;;;5.32;4.20;;;;;;;;;;4265914;33;20335;-56
2021/06/28 02:30:13;;;;;;;5.03;4.28;;;;;;;;;;4266133;33;20267;-55
2021/06/28 02:32:40;;;;;;;4.20;3.30;;;;;;;;;;4265893;33;20287;-55
2021/06/28 02:35:08;;;;;;;7.53;4.57;;;;;;;;;;4265984;33;20242;-55
2021/06/28 02:37:34;;;;;;;7.72;6.12;;;;;;;;;;4264945;33;20400;-56
2021/06/28 02:40:00;;;;;;;7.05;6.03;;;;;;;;;;4276617;33;20268;-55
2021/06/28 02:42:26;;;;;;;5.72;5.18;;;;;;;;;;4265819;33;20263;-55
2021/06/28 02:44:52;;;;;;;10.68;3.90;;;;;;;;;;4265938;33;20287;-56
2021/06/28 02:47:17;;;;;;;6.15;4.45;;;;;;;;;;4265603;33;20660;-55
2021/06/28 02:49:43;;;;;;;5.90;4.07;;;;;;;;;;4266177;33;20292;-58
2021/06/28 02:52:08;;;;;;;5.47;4.45;;;;;;;;;;4265462;33;20351;-56
2021/06/28 02:54:34;;;;;;;5.43;4.30;;;;;;;;;;4265708;33;20343;-56
2021/06/28 02:56:59;;;;;;;3.80;3.47;;;;;;;;;;4266035;33;20236;-56
2021/06/28 02:59:25;;;;;;;4.40;3.20;;;;;;;;;;4265537;33;20270;-56
2021/06/28 03:01:51;;;;;;;6.70;3.42;;;;;;;;;;4266030;33;20645;-56
2021/06/28 03:04:16;;;;;;;6.85;4.53;;;;;;;;;;4270084;33;20236;-55
2021/06/28 03:06:41;;;;;;;4.50;3.90;;;;;;;;;;4265667;33;20275;-55
2021/06/28 03:09:07;;;;;;;5.05;3.28;;;;;;;;;;4270030;33;20229;-55
2021/06/28 03:11:32;;;;;;;4.65;4.00;;;;;;;;;;4265646;33;20721;-55
2021/06/28 03:13:58;;;;;;;4.80;3.67;;;;;;;;;;4265808;33;20504;-56
2021/06/28 03:16:25;;;;;;;4.37;3.40;;;;;;;;;;4265038;33;20326;-55
2021/06/28 03:18:51;;;;;;;4.43;3.33;;;;;;;;;;4265403;33;20220;-55
2021/06/28 03:21:17;;;;;;;5.25;4.10;;;;;;;;;;4265766;33;20298;-54
2021/06/28 03:23:44;;;;;;;5.53;4.12;;;;;;;;;;4265216;33;20221;-55
2021/06/28 03:26:10;;;;;;;4.95;4.45;;;;;;;;;;4265266;33;20353;-54
2021/06/28 03:28:35;;;;;;;7.30;4.30;;;;;;;;;;4265454;33;20283;-54
2021/06/28 03:31:04;;;;;;;5.95;4.70;;;;;;;;;;4265197;33;20283;-56
2021/06/28 03:33:29;;;;;;;7.95;6.10;;;;;;;;;;4264988;33;20347;-55
2021/06/28 03:35:55;;;;;;;8.55;6.50;;;;;;;;;;4265002;33;20350;-56
2021/06/28 03:38:20;;;;;;;6.55;4.90;;;;;;;;;;4265024;33;20229;-56
2021/06/28 03:40:46;;;;;;;6.72;4.80;;;;;;;;;;4265148;33;20280;-55
2021/06/28 03:43:12;;;;;;;5.05;4.40;;;;;;;;;;4265009;33;20325;-55
2021/06/28 03:45:38;;;;;;;7.55;4.22;;;;;;;;;;4265056;33;20283;-56
2021/06/28 03:48:06;;;;;;;9.18;5.20;;;;;;;;;;4264621;33;20846;-55
2021/06/28 03:50:32;;;;;;;5.68;4.20;;;;;;;;;;4287715;33;20248;-55
2021/06/28 03:52:58;;;;;;;5.45;4.30;;;;;;;;;;4264874;33;20614;-55
2021/06/28 03:55:23;;;;;;;9.50;4.80;;;;;;;;;;4265106;33;20263;-56
2021/06/28 03:57:49;;;;;;;7.55;4.85;;;;;;;;;;4264620;33;20414;-55
2021/06/28 04:00:18;;;;;;;5.65;5.10;;;;;;;;;;4264918;33;20373;-56
2021/06/28 04:02:44;;;;;;;12.73;5.07;;;;;;;;;;4264557;33;20216;-56
2021/06/28 04:05:17;;;;;;;8.05;4.87;;;;;;;;;;4264526;33;20351;-56
2021/06/28 04:07:43;;;;;;;10.57;4.45;;;;;;;;;;4264972;33;20228;-55
2021/06/28 04:10:10;;;;;;;8.13;4.40;;;;;;;;;;4264539;33;20383;-56
2021/06/28 04:12:36;;;;;;;7.35;4.47;;;;;;;;;;4263859;33;20247;-56
2021/06/28 04:15:03;;;;;;;8.02;4.70;;;;;;;;;;4264903;33;20563;-55
2021/06/28 04:17:29;;;;;;;6.03;4.70;;;;;;;;;;4264192;33;20935;-55
2021/06/28 04:19:54;;;;;;;7.30;4.37;;;;;;;;;;4263493;33;20331;-56
2021/06/28 04:22:20;;;;;;;9.15;4.43;;;;;;;;;;4264305;33;20225;-55
2021/06/28 04:24:45;;;;;;;9.20;4.72;;;;;;;;;;4264754;33;20317;-56
2021/06/28 04:27:11;;;;;;;8.65;4.93;;;;;;;;;;4264178;33;20205;-56
2021/06/28 04:29:37;;;;;;;10.27;4.70;;;;;;;;;;4264289;33;20197;-56
2021/06/28 04:32:04;;;;;;;5.93;4.55;;;;;;;;;;4264128;33;20283;-55
2021/06/28 04:34:30;;;;;;;8.82;5.22;;;;;;;;;;4264509;33;20370;-55
2021/06/28 04:36:55;;;;;;;7.03;5.07;;;;;;;;;;4263737;33;20217;-56
2021/06/28 04:39:21;;;;;;;5.62;4.37;;;;;;;;;;4264247;33;20204;-55
2021/06/28 04:41:46;;;;;;;6.47;4.78;;;;;;;;;;4264301;33;20241;-55
2021/06/28 04:44:12;;;;;;;8.10;4.87;;;;;;;;;;4264729;33;20238;-56
2021/06/28 04:46:38;;;;;;;10.13;4.80;;;;;;;;;;4264238;33;20709;-55
2021/06/28 04:49:04;;;;;;;6.25;4.70;;;;;;;;;;4264491;33;20253;-55
2021/06/28 04:51:31;;;;;;;5.75;4.32;;;;;;;;;;4263791;33;20359;-55
2021/06/28 04:53:56;;;;;;;4.57;4.15;;;;;;;;;;4274236;33;20216;-54
2021/06/28 04:56:22;;;;;;;12.10;4.97;;;;;;;;;;4263130;33;20227;-55
2021/06/28 04:58:47;;;;;;;7.10;5.00;;;;;;;;;;4263705;33;20220;-55
2021/06/28 05:01:13;;;;;;;5.55;4.15;;;;;;;;;;4263932;33;20295;-55
2021/06/28 05:03:38;;;;;;;5.22;4.57;;;;;;;;;;4263537;33;20220;-55
2021/06/28 05:06:04;;;;;;;6.03;4.78;;;;;;;;;;4274426;33;20977;-55
2021/06/28 05:08:29;;;;;;;6.93;4.80;;;;;;;;;;4263482;33;20350;-55
2021/06/28 05:10:55;;;;;;;7.28;5.00;;;;;;;;;;4263255;33;20681;-56
2021/06/28 05:13:20;;;;;;;6.12;4.72;;;;;;;;;;4263118;33;20631;-55
2021/06/28 05:15:46;;;;;;;5.03;4.53;;;;;;;;;;4274403;33;20649;-55
2021/06/28 05:18:11;;;;;;;11.98;4.50;;;;;;;;;;4263014;33;20649;-54
2021/06/28 05:20:37;;;;;;;8.32;5.05;;;;;;;;;;4263866;33;20740;-55
2021/06/28 05:23:03;;;;;;;10.93;5.00;;;;;;;;;;4264354;33;20212;-55
2021/06/28 05:25:28;;;;;;;10.52;5.47;;;;;;;;;;4265090;33;20292;-55
2021/06/28 05:27:54;;;;;;;7.57;5.53;;;;;;;;;;4266901;33;20232;-56
2021/06/28 05:30:20;;;;;;;11.30;5.53;;;;;;;;;;4277340;33;20707;-55
2021/06/28 05:32:45;;;;;;;8.20;4.82;;;;;;;;;;4263321;33;20341;-55
2021/06/28 05:35:12;;;;;;;5.57;4.80;;;;;;;;;;4265174;33;20311;-55
2021/06/28 05:37:39;;;;;;;11.07;5.03;;;;;;;;;;4264757;33;20665;-56
2021/06/28 05:40:06;;;;;;;22.60;12.10;;;;;;;;;;4264684;33;20858;-55
2021/06/28 05:42:31;;;;;;;8.05;6.25;;;;;;;;;;4264388;33;20236;-55
2021/06/28 05:44:57;;;;;;;5.97;5.35;;;;;;;;;;4264953;33;20314;-56
2021/06/28 05:47:23;;;;;;;19.20;6.97;;;;;;;;;;4264427;33;20228;-55
2021/06/28 05:49:51;;;;;;;7.85;6.03;;;;;;;;;;4266482;33;20272;-57
2021/06/28 05:52:20;;;;;;;8.45;6.15;;;;;;;;;;4266309;33;20216;-56
2021/06/28 05:54:47;;;;;;;7.82;6.15;;;;;;;;;;4266096;33;20213;-55
2021/06/28 05:57:12;;;;;;;5.53;5.00;;;;;;;;;;4266489;33;20724;-55
2021/06/28 05:59:38;;;;;;;6.03;5.30;;;;;;;;;;4266861;33;20276;-55
2021/06/28 06:02:03;;;;;;;6.72;4.28;;;;;;;;;;4266393;33;20557;-55
2021/06/28 06:04:29;;;;;;;9.15;5.35;;;;;;;;;;4266666;33;20405;-56
2021/06/28 06:06:55;;;;;;;6.10;4.68;;;;;;;;;;4265430;33;20401;-55
2021/06/28 06:09:20;;;;;;;8.02;5.20;;;;;;;;;;4266116;33;20245;-56
2021/06/28 06:11:46;;;;;;;9.60;5.30;;;;;;;;;;4266523;33;20291;-56
2021/06/28 06:14:11;;;;;;;9.05;5.12;;;;;;;;;;4266262;33;20231;-56
2021/06/28 06:16:37;;;;;;;19.77;7.62;;;;;;;;;;4266198;33;20272;-56
2021/06/28 06:19:02;;;;;;;6.93;5.22;;;;;;;;;;4276842;33;20604;-56
2021/06/28 06:21:28;;;;;;;9.32;5.03;;;;;;;;;;4265626;33;20698;-55
2021/06/28 06:23:54;;;;;;;6.47;4.80;;;;;;;;;;4265932;33;20251;-55
2021/06/28 06:26:19;;;;;;;7.10;5.15;;;;;;;;;;4266125;33;20335;-55
2021/06/28 06:28:45;;;;;;;6.20;4.70;;;;;;;;;;4265455;33;20311;-55
2021/06/28 06:31:12;;;;;;;8.18;5.30;;;;;;;;;;4265414;33;20679;-55
2021/06/28 06:33:38;;;;;;;7.55;4.62;;;;;;;;;;4265601;33;20774;-55
2021/06/28 06:36:04;;;;;;;7.70;4.70;;;;;;;;;;4276847;33;20646;-55
2021/06/28 06:38:30;;;;;;;7.05;5.12;;;;;;;;;;4265869;33;20300;-55
2021/06/28 06:40:55;;;;;;;5.72;4.57;;;;;;;;;;4265329;33;20797;-55
2021/06/28 06:43:21;;;;;;;8.30;5.00;;;;;;;;;;4266538;33;20333;-55
2021/06/28 06:45:46;;;;;;;5.55;4.93;;;;;;;;;;4265382;33;20404;-57
2021/06/28 06:48:12;;;;;;;5.78;4.40;;;;;;;;;;4265837;33;20585;-55
2021/06/28 06:50:39;;;;;;;5.25;4.12;;;;;;;;;;4265355;33;20627;-56
2021/06/28 06:53:05;;;;;;;5.62;5.03;;;;;;;;;;4265508;33;20378;-56
2021/06/28 06:55:33;;;;;;;6.90;4.53;;;;;;;;;;4264538;33;20307;-55
2021/06/28 06:57:59;;;;;;;7.03;4.85;;;;;;;;;;4276378;33;20321;-55
2021/06/28 07:00:25;;;;;;;9.02;5.35;;;;;;;;;;4273185;33;20255;-57
2021/06/28 07:02:50;;;;;;;7.03;4.80;;;;;;;;;;4273238;33;20213;-56
2021/06/28 07:05:17;;;;;;;13.45;5.05;;;;;;;;;;4273223;33;20267;-56
2021/06/28 07:07:43;;;;;;;6.50;4.55;;;;;;;;;;4273208;33;20220;-56
2021/06/28 07:10:11;;;;;;;5.87;4.82;;;;;;;;;;4283570;33;20719;-56
2021/06/28 07:12:37;;;;;;;5.87;4.47;;;;;;;;;;4273621;33;20264;-55
2021/06/28 07:15:04;;;;;;;4.90;4.05;;;;;;;;;;4273383;33;20713;-55
2021/06/28 07:17:29;;;;;;;5.90;4.75;;;;;;;;;;4273523;33;20280;-55
2021/06/28 07:19:55;;;;;;;6.30;4.28;;;;;;;;;;4273234;33;20275;-56
2021/06/28 07:22:20;;;;;;;7.15;4.75;;;;;;;;;;4273145;33;20649;-55
2021/06/28 07:24:46;;;;;;;4.15;3.75;;;;;;;;;;4273206;33;20346;-56
2021/06/28 07:27:12;;;;;;;6.97;4.53;;;;;;;;;;4273235;33;20255;-55
2021/06/28 07:29:38;;;;;;;5.37;4.65;;;;;;;;;;4273431;33;20279;-55
2021/06/28 07:32:04;;;;;;;5.50;4.75;;;;;;;;;;4269106;33;20900;-54
2021/06/28 07:34:30;;;;;;;6.20;5.05;;;;;;;;;;4272557;33;20265;-56
2021/06/28 07:36:56;;;;;;;5.00;4.57;;;;;;;;;;4272733;33;20677;-55
2021/06/28 07:39:21;;;;;;;7.22;4.47;;;;;;;;;;4260223;33;20251;-55
2021/06/28 07:41:47;;;;;;;5.37;4.60;;;;;;;;;;4257876;33;20721;-55
2021/06/28 07:44:12;;;;;;;8.30;4.28;;;;;;;;;;4267573;33;20255;-55
2021/06/28 07:46:38;;;;;;;4.95;4.35;;;;;;;;;;4257483;33;20685;-55
2021/06/28 07:49:05;;;;;;;5.35;4.05;;;;;;;;;;4258001;33;20239;-54
2021/06/28 07:51:35;;;;;;;5.12;3.95;;;;;;;;;;4257722;33;20675;-55
2021/06/28 07:54:02;;;;;;;5.03;4.10;;;;;;;;;;4258836;33;20201;-55
2021/06/28 07:56:27;;;;;;;5.03;4.35;;;;;;;;;;4258484;33;20284;-56
2021/06/28 07:58:53;;;;;;;7.32;4.53;;;;;;;;;;4258514;33;20231;-55
2021/06/28 08:01:21;;;;;;;4.47;4.00;;;;;;;;;;4258281;33;20276;-56
2021/06/28 08:03:47;;;;;;;6.37;4.53;;;;;;;;;;4258973;33;20237;-56
2021/06/28 08:06:14;;;;;;;4.90;4.00;;;;;;;;;;4258292;33;20272;-56
2021/06/28 08:08:40;;;;;;;7.43;4.28;;;;;;;;;;4258782;33;20586;-56
2021/06/28 08:11:08;;;;;;;6.95;4.12;;;;;;;;;;4269085;33;20280;-57
2021/06/28 08:13:34;;;;;;;4.22;3.40;;;;;;;;;;4272924;33;20304;-56
2021/06/28 08:16:01;;;;;;;4.95;3.55;;;;;;;;;;4272834;33;20306;-57
2021/06/28 08:18:26;;;;;;;4.65;4.10;;;;;;;;;;4272321;33;20710;-55
2021/06/28 08:20:52;;;;;;;6.07;4.50;;;;;;;;;;4272278;33;20252;-55
2021/06/28 08:23:17;;;;;;;4.20;3.80;;;;;;;;;;4272828;33;20690;-56
2021/06/28 08:25:42;;;;;;;6.07;4.65;;;;;;;;;;4272569;33;20635;-56
2021/06/28 08:28:10;;;;;;;6.90;3.45;;;;;;;;;;4272609;33;20742;-56
2021/06/28 08:30:35;;;;;;;4.22;3.12;;;;;;;;;;4269532;33;20323;-56
2021/06/28 08:33:01;;;;;;;5.30;4.43;;;;;;;;;;4272413;33;20634;-56
2021/06/28 08:35:26;;;;;;;4.35;3.42;;;;;;;;;;4272685;33;20502;-56
2021/06/28 08:37:52;;;;;;;4.78;4.28;;;;;;;;;;4257538;33;20275;-56
2021/06/28 08:40:17;;;;;;;4.90;3.85;;;;;;;;;;4245948;33;20307;-56
2021/06/28 08:42:44;;;;;;;5.87;4.30;;;;;;;;;;4258181;33;20233;-56
2021/06/28 08:45:11;;;;;;;3.78;3.15;;;;;;;;;;4254561;33;20279;-56
2021/06/28 08:47:36;;;;;;;3.85;3.45;;;;;;;;;;4244252;33;20339;-56
2021/06/28 08:50:04;;;;;;;4.25;3.20;;;;;;;;;;4266246;33;20760;-57
2021/06/28 08:52:35;;;;;;;5.28;3.42;;;;;;;;;;4243773;33;20685;-56
2021/06/28 08:55:00;;;;;;;3.62;3.33;;;;;;;;;;4254981;33;20312;-56
2021/06/28 08:57:26;;;;;;;4.72;3.42;;;;;;;;;;4257857;33;20247;-56
2021/06/28 08:59:52;;;;;;;4.43;3.05;;;;;;;;;;4258179;33;20287;-56
2021/06/28 09:02:18;;;;;;;5.78;3.05;;;;;;;;;;4257677;33;20221;-56
2021/06/28 09:05:12;;;;;;;3.10;2.80;;;;;;;;;;4257474;33;20268;-56
2021/06/28 09:07:38;;;;;;;5.15;3.30;;;;;;;;;;4260208;33;20220;-56
2021/06/28 09:10:04;;;;;;;4.80;3.50;;;;;;;;;;4262432;33;20653;-56
2021/06/28 09:12:30;;;;;;;3.95;2.90;;;;;;;;;;4258543;33;20279;-55
2021/06/28 09:14:59;;;;;;;2.55;2.35;;;;;;;;;;4257394;33;20351;-57
2021/06/28 09:17:25;;;;;;;4.32;2.50;;;;;;;;;;4256397;33;20232;-55
2021/06/28 09:20:16;;;;;;;4.18;3.25;;;;;;;;;;4257925;33;20248;-55
2021/06/28 09:22:43;;;;;;;3.65;2.97;;;;;;;;;;4258860;33;20229;-55
2021/06/28 09:25:28;;;;;;;4.40;3.25;;;;;;;;;;4257731;33;20209;-55
2021/06/28 09:27:54;;;;;;;3.45;2.58;;;;;;;;;;4257527;33;20204;-55
2021/06/28 09:30:20;;;;;;;5.37;3.12;;;;;;;;;;4259869;33;20485;-55
2021/06/28 09:32:56;;;;;;;5.40;3.25;;;;;;;;;;4258139;33;20247;-55
2021/06/28 09:35:36;;;;;;;4.93;3.15;;;;;;;;;;4257105;33;20236;-55
2021/06/28 09:38:05;;;;;;;3.05;2.75;;;;;;;;;;4257518;33;20251;-55
2021/06/28 09:40:32;;;;;;;3.12;2.83;;;;;;;;;;4257311;33;20201;-55
2021/06/28 09:42:58;;;;;;;3.55;3.20;;;;;;;;;;4265151;33;20311;-57
2021/06/28 09:45:24;;;;;;;4.70;2.92;;;;;;;;;;4269217;33;20435;-58
2021/06/28 09:47:51;;;;;;;3.95;3.30;;;;;;;;;;4268963;33;20418;-56
2021/06/28 09:50:19;;;;;;;5.97;3.08;;;;;;;;;;4268985;33;20287;-55
2021/06/28 09:52:56;;;;;;;5.03;3.42;;;;;;;;;;4269810;33;20287;-56
2021/06/28 09:55:42;;;;;;;3.55;3.25;;;;;;;;;;4269790;33;20448;-56
2021/06/28 09:58:27;;;;;;;2.75;2.55;;;;;;;;;;4257116;33;20268;-56
2021/06/28 10:01:00;;;;;;;3.22;2.55;;;;;;;;;;4244877;33;20744;-57
2021/06/28 10:03:43;;;;;;;3.50;3.20;;;;;;;;;;4244143;33;20217;-56
2021/06/28 10:06:15;;;;;;;4.87;3.50;;;;;;;;;;4251317;33;20280;-57
2021/06/28 10:08:45;;;;;;;4.47;3.17;;;;;;;;;;4243020;33;20213;-56
2021/06/28 10:11:11;;;;;;;4.22;3.35;;;;;;;;;;4245495;33;20217;-55
2021/06/28 10:13:37;;;;;;;4.55;2.83;;;;;;;;;;4245876;33;20297;-55
2021/06/28 10:16:04;;;;;;;3.65;2.78;;;;;;;;;;4259563;33;20586;-57
2021/06/28 10:18:29;;;;;;;3.55;2.80;;;;;;;;;;4260186;33;20402;-56
2021/06/28 10:20:55;;;;;;;3.30;3.00;;;;;;;;;;4259970;33;20339;-57
2021/06/28 10:23:21;;;;;;;3.00;2.60;;;;;;;;;;4259685;33;20288;-56
2021/06/28 10:25:46;;;;;;;6.28;3.62;;;;;;;;;;4259978;33;20318;-58
2021/06/28 10:28:12;;;;;;;3.75;3.25;;;;;;;;;;4247249;33;20236;-56
2021/06/28 10:30:37;;;;;;;3.95;3.05;;;;;;;;;;4262829;33;20299;-57
2021/06/28 10:33:09;;;;;;;3.55;2.85;;;;;;;;;;4259730;33;20289;-56
2021/06/28 10:35:37;;;;;;;4.72;3.30;;;;;;;;;;4260360;33;20205;-55
2021/06/28 10:38:09;;;;;;;5.72;3.15;;;;;;;;;;4259693;33;20607;-55
2021/06/28 10:40:53;;;;;;;7.18;5.40;;;;;;;;;;4259832;33;20241;-56
2021/06/28 10:43:26;;;;;;;4.93;4.20;;;;;;;;;;4258704;33;20240;-56
2021/06/28 10:45:52;;;;;;;4.25;3.37;;;;;;;;;;4258776;33;20201;-56
2021/06/28 10:48:21;;;;;;;3.92;3.05;;;;;;;;;;4259283;33;20225;-57
2021/06/28 10:50:57;;;;;;;3.35;3.03;;;;;;;;;;4268515;33;20229;-56
2021/06/28 10:53:55;;;;;;;4.43;3.20;;;;;;;;;;4259151;33;20241;-57
2021/06/28 10:56:31;;;;;;;3.45;2.97;;;;;;;;;;4275462;33;20217;-56
2021/06/28 10:59:16;;;;;;;3.67;3.08;;;;;;;;;;4262319;33;20200;-58
2021/06/28 11:02:08;;;;;;;4.53;3.20;;;;;;;;;;4259113;33;20488;-55
2021/06/28 11:04:36;;;;;;;3.25;2.95;;;;;;;;;;4258930;33;20201;-56
2021/06/28 11:07:07;;;;;;;5.97;4.07;;;;;;;;;;4271620;33;20244;-55
2021/06/28 11:09:52;;;;;;;3.95;3.08;;;;;;;;;;4272362;33;20260;-56
2021/06/28 11:12:21;;;;;;;3.53;3.22;;;;;;;;;;4273462;33;20224;-56
2021/06/28 11:15:13;;;;;;;4.43;3.55;;;;;;;;;;4273340;33;20216;-57
2021/06/28 11:17:41;;;;;;;6.40;3.67;;;;;;;;;;4283656;33;20267;-57
2021/06/28 11:20:30;;;;;;;3.62;3.25;;;;;;;;;;4273025;33;20553;-56
2021/06/28 11:23:14;;;;;;;2.97;2.70;;;;;;;;;;4271089;33;20237;-57
2021/06/28 11:25:54;;;;;;;4.40;3.97;;;;;;;;;;4273177;33;20299;-58
2021/06/28 11:28:21;;;;;;;6.90;3.58;;;;;;;;;;4273597;33;20300;-57
2021/06/28 11:30:59;;;;;;;3.92;3.60;;;;;;;;;;4271245;33;20235;-57
2021/06/28 11:33:37;;;;;;;3.72;3.22;;;;;;;;;;4259162;33;20216;-57
2021/06/28 11:36:05;;;;;;;3.70;3.40;;;;;;;;;;4261660;33;20613;-57
2021/06/28 11:38:34;;;;;;;3.70;3.37;;;;;;;;;;4273254;33;20637;-57
2021/06/28 11:41:02;;;;;;;4.70;3.35;;;;;;;;;;4273049;33;20402;-57
2021/06/28 11:43:38;;;;;;;6.68;3.03;;;;;;;;;;4272762;33;20252;-56
2021/06/28 11:46:06;;;;;;;4.45;3.70;;;;;;;;;;4272067;33;20228;-57
2021/06/28 11:48:35;;;;;;;3.00;2.62;;;;;;;;;;4272427;33;20291;-56
2021/06/28 11:51:10;;;;;;;5.03;3.40;;;;;;;;;;4282831;33;20274;-56
2021/06/28 11:53:35;;;;;;;4.07;3.58;;;;;;;;;;4272328;33;20617;-56
2021/06/28 11:56:18;;;;;;;3.80;3.25;;;;;;;;;;4272148;33;20323;-56
2021/06/28 11:58:50;;;;;;;7.28;3.35;;;;;;;;;;4272602;33;20216;-56
2021/06/28 12:01:15;;;;;;;3.95;3.55;;;;;;;;;;4277037;33;20315;-57
2021/06/28 12:03:41;;;;;;;3.78;3.37;;;;;;;;;;4255204;33;20634;-57
2021/06/28 12:06:08;;;;;;;3.55;3.25;;;;;;;;;;4258896;33;20632;-56
2021/06/28 12:08:34;;;;;;;3.47;3.17;;;;;;;;;;4258340;33;20217;-57
2021/06/28 12:11:02;;;;;;;4.95;4.22;;;;;;;;;;4256062;33;20834;-57
2021/06/28 12:13:36;;;;;;;3.72;3.20;;;;;;;;;;4257888;33;20225;-56
2021/06/28 12:16:42;;;;;;;4.00;3.35;;;;;;;;;;4256442;33;20752;-57
2021/06/28 12:19:10;;;;;;;4.00;3.00;;;;;;;;;;4271135;33;20298;-56
2021/06/28 12:21:41;;;;;;;3.70;3.37;;;;;;;;;;4283934;33;20215;-56
2021/06/28 12:24:11;;;;;;;4.70;3.62;;;;;;;;;;4270179;33;20216;-57
2021/06/28 12:26:38;;;;;;;4.55;3.35;;;;;;;;;;4257487;33;20336;-57
2021/06/28 12:29:24;;;;;;;3.53;3.12;;;;;;;;;;4257351;33;20287;-57
2021/06/28 12:31:50;;;;;;;3.75;3.45;;;;;;;;;;4265038;33;20291;-57
2021/06/28 12:34:19;;;;;;;3.72;3.30;;;;;;;;;;4271689;33;20204;-57
2021/06/28 12:36:50;;;;;;;4.10;3.70;;;;;;;;;;4260713;33;20267;-57
2021/06/28 12:39:26;;;;;;;5.85;3.83;;;;;;;;;;4255509;33;20213;-57
2021/06/28 12:41:52;;;;;;;3.50;3.20;;;;;;;;;;4260431;33;20638;-56
2021/06/28 12:44:20;;;;;;;5.32;3.35;;;;;;;;;;4272459;33;20283;-58
2021/06/28 12:46:47;;;;;;;3.17;2.87;;;;;;;;;;4272075;33;20554;-56
2021/06/28 12:49:14;;;;;;;4.40;3.72;;;;;;;;;;4272264;33;20197;-56
2021/06/28 12:51:39;;;;;;;3.78;3.20;;;;;;;;;;4259323;33;20458;-56
2021/06/28 12:54:24;;;;;;;3.78;3.47;;;;;;;;;;4272133;33;20237;-56
2021/06/28 12:56:49;;;;;;;4.07;3.60;;;;;;;;;;4272347;33;20216;-57
2021/06/28 12:59:32;;;;;;;4.72;3.70;;;;;;;;;;4272558;33;20264;-56
2021/06/28 13:01:58;;;;;;;5.18;3.22;;;;;;;;;;4272424;33;20676;-56
2021/06/28 13:04:23;;;;;;;4.10;3.67;;;;;;;;;;4271812;33;20519;-57
2021/06/28 13:06:52;;;;;;;4.40;3.60;;;;;;;;;;4272167;33;20209;-57
2021/06/28 13:09:19;;;;;;;3.75;3.30;;;;;;;;;;4271675;33;20700;-57
2021/06/28 13:11:50;;;;;;;3.72;3.33;;;;;;;;;;4259608;33;20221;-56
2021/06/28 13:14:28;;;;;;;4.12;3.75;;;;;;;;;;4242426;33;20284;-57
2021/06/28 13:17:05;;;;;;;5.37;3.65;;;;;;;;;;4243455;33;20288;-57
2021/06/28 13:19:32;;;;;;;3.95;3.37;;;;;;;;;;4243708;33;20235;-57
2021/06/28 13:22:00;;;;;;;3.40;3.10;;;;;;;;;;4243550;33;20228;-56
2021/06/28 13:24:28;;;;;;;3.30;2.85;;;;;;;;;;4243468;33;20549;-57
2021/06/28 13:27:03;;;;;;;3.28;2.97;;;;;;;;;;4243544;33;20293;-57
2021/06/28 13:29:40;;;;;;;5.03;3.80;;;;;;;;;;4243584;33;20288;-57
2021/06/28 13:32:18;;;;;;;6.00;3.08;;;;;;;;;;4269788;33;20590;-56
2021/06/28 13:34:46;;;;;;;4.25;3.85;;;;;;;;;;4258164;33;20208;-57
2021/06/28 13:37:17;;;;;;;3.95;3.42;;;;;;;;;;4258199;33;20304;-57
2021/06/28 13:40:01;;;;;;;3.85;3.45;;;;;;;;;;4265622;33;20220;-56
2021/06/28 13:42:58;;;;;;;4.28;3.22;;;;;;;;;;4258415;33;20278;-57
2021/06/28 13:45:29;;;;;;;4.07;3.47;;;;;;;;;;4261348;33;20243;-56
2021/06/28 13:48:02;;;;;;;3.92;3.60;;;;;;;;;;4261064;33;20724;-57
2021/06/28 13:50:36;;;;;;;3.50;3.05;;;;;;;;;;4260910;33;20220;-56
2021/06/28 13:53:08;;;;;;;5.00;3.65;;;;;;;;;;4260717;33;20224;-57
2021/06/28 13:55:36;;;;;;;4.78;3.20;;;;;;;;;;4260851;33;20227;-58
2021/06/28 13:58:05;;;;;;;5.12;4.12;;;;;;;;;;4259646;33;20312;-57
2021/06/28 14:00:35;;;;;;;4.28;3.70;;;;;;;;;;4259983;33;20224;-56
2021/06/28 14:03:00;;;;;;;4.32;3.85;;;;;;;;;;4260399;33;20334;-57
2021/06/28 14:05:26;;;;;;;3.80;3.28;;;;;;;;;;4264197;33;20343;-58
2021/06/28 14:07:52;;;;;;;4.12;3.35;;;;;;;;;;4273069;33;20287;-56
2021/06/28 14:10:18;;;;;;;3.50;2.97;;;;;;;;;;4260594;33;20323;-57
2021/06/28 14:12:44;;;;;;;5.68;4.25;;;;;;;;;;4260200;33;20228;-57
2021/06/28 14:15:12;;;;;;;4.72;3.53;;;;;;;;;;4260743;33;20416;-59
2021/06/28 14:17:38;;;;;;;4.05;3.42;;;;;;;;;;4259932;33;20468;-59
2021/06/28 14:20:06;;;;;;;4.20;3.25;;;;;;;;;;4259969;33;20213;-58
2021/06/28 14:22:33;;;;;;;3.72;3.05;;;;;;;;;;4259634;33;20295;-56
2021/06/28 14:25:00;;;;;;;5.40;3.87;;;;;;;;;;4259820;33;20239;-58
2021/06/28 14:27:25;;;;;;;5.72;3.60;;;;;;;;;;4258328;33;20232;-57
2021/06/28 14:29:51;;;;;;;3.75;3.35;;;;;;;;;;4259542;33;20310;-58
2021/06/28 14:32:16;;;;;;;5.22;3.72;;;;;;;;;;4260954;33;20224;-58
2021/06/28 14:34:42;;;;;;;9.52;3.53;;;;;;;;;;4259824;33;20657;-57
2021/06/28 14:37:07;;;;;;;5.37;3.90;;;;;;;;;;4260040;33;20297;-57
2021/06/28 14:39:33;;;;;;;3.72;3.33;;;;;;;;;;4259627;33;20201;-56
2021/06/28 14:41:59;;;;;;;4.55;3.45;;;;;;;;;;4260407;33;20240;-57
2021/06/28 14:44:24;;;;;;;4.25;3.78;;;;;;;;;;4260225;33;20209;-57
2021/06/28 14:46:50;;;;;;;5.95;3.67;;;;;;;;;;4259850;33;20244;-58
2021/06/28 14:49:15;;;;;;;3.15;2.85;;;;;;;;;;4259496;33;20205;-56